sensor_id;sensor_type;location;lat;lon;timestamp;P1;durP1;ratioP1;P2;durP2;ratioP2
35757;SDS011;21879;50.110;18.900;2023-03-12T00:06:58;11.40;;;5.70;;
35757;SDS011;21879;50.110;18.900;2023-03-12T00:17:23;12.40;;;6.50;;
35757;SDS011;21879;50.110;18.900;2023-03-12T00:27:50;10.50;;;6.50;;
35757;SDS011;21879;50.110;18.900;2023-03-12T00:38:16;11.00;;;5.20;;
35757;SDS011;21879;50.110;18.900;2023-03-12T00:48:41;10.60;;;6.90;;
35757;SDS011;21879;50.110;18.900;2023-03-12T00:59:07;10.50;;;5.70;;
35757;SDS011;21879;50.110;18.900;2023-03-12T01:09:33;12.00;;;6.80;;
35757;SDS011;21879;50.110;18.900;2023-03-12T01:19:59;15.10;;;9.30;;
35757;SDS011;21879;50.110;18.900;2023-03-12T01:30:25;11.90;;;6.90;;
35757;SDS011;21879;50.110;18.900;2023-03-12T01:40:51;11.40;;;6.30;;
35757;SDS011;21879;50.110;18.900;2023-03-12T01:51:17;9.90;;;6.50;;
35757;SDS011;21879;50.110;18.900;2023-03-12T02:01:44;10.80;;;5.80;;
35757;SDS011;21879;50.110;18.900;2023-03-12T02:12:11;13.60;;;6.20;;
35757;SDS011;21879;50.110;18.900;2023-03-12T02:22:39;13.60;;;7.50;;
35757;SDS011;21879;50.110;18.900;2023-03-12T02:33:10;10.20;;;6.30;;
35757;SDS011;21879;50.110;18.900;2023-03-12T02:43:37;10.60;;;6.80;;
35757;SDS011;21879;50.110;18.900;2023-03-12T02:54:04;10.90;;;8.20;;
35757;SDS011;21879;50.110;18.900;2023-03-12T03:04:30;16.10;;;9.70;;
35757;SDS011;21879;50.110;18.900;2023-03-12T03:14:57;16.90;;;9.60;;
35757;SDS011;21879;50.110;18.900;2023-03-12T03:25:22;21.10;;;11.90;;
35757;SDS011;21879;50.110;18.900;2023-03-12T03:35:48;15.50;;;9.10;;
35757;SDS011;21879;50.110;18.900;2023-03-12T03:46:14;13.30;;;8.40;;
35757;SDS011;21879;50.110;18.900;2023-03-12T03:56:40;11.60;;;6.20;;
35757;SDS011;21879;50.110;18.900;2023-03-12T04:07:06;9.90;;;6.10;;
35757;SDS011;21879;50.110;18.900;2023-03-12T04:17:31;15.90;;;8.30;;
35757;SDS011;21879;50.110;18.900;2023-03-12T04:27:57;9.90;;;5.40;;
35757;SDS011;21879;50.110;18.900;2023-03-12T04:38:23;11.70;;;5.80;;
35757;SDS011;21879;50.110;18.900;2023-03-12T04:48:50;13.20;;;6.80;;
35757;SDS011;21879;50.110;18.900;2023-03-12T04:59:16;11.00;;;6.70;;
35757;SDS011;21879;50.110;18.900;2023-03-12T05:09:42;10.50;;;5.60;;
35757;SDS011;21879;50.110;18.900;2023-03-12T05:20:09;10.80;;;5.90;;
35757;SDS011;21879;50.110;18.900;2023-03-12T05:30:37;10.00;;;6.20;;
35757;SDS011;21879;50.110;18.900;2023-03-12T05:41:03;12.30;;;7.20;;
35757;SDS011;21879;50.110;18.900;2023-03-12T05:51:29;7.80;;;5.40;;
35757;SDS011;21879;50.110;18.900;2023-03-12T06:01:55;11.30;;;5.50;;
35757;SDS011;21879;50.110;18.900;2023-03-12T06:12:21;10.00;;;5.20;;
35757;SDS011;21879;50.110;18.900;2023-03-12T06:22:47;11.10;;;5.80;;
35757;SDS011;21879;50.110;18.900;2023-03-12T06:33:12;12.60;;;6.10;;
35757;SDS011;21879;50.110;18.900;2023-03-12T06:43:38;11.80;;;7.00;;
35757;SDS011;21879;50.110;18.900;2023-03-12T06:54:05;13.00;;;8.40;;
35757;SDS011;21879;50.110;18.900;2023-03-12T07:04:31;14.70;;;8.70;;
35757;SDS011;21879;50.110;18.900;2023-03-12T07:14:57;17.90;;;10.90;;
35757;SDS011;21879;50.110;18.900;2023-03-12T07:25:23;14.30;;;8.50;;
35757;SDS011;21879;50.110;18.900;2023-03-12T07:35:49;15.70;;;9.40;;
35757;SDS011;21879;50.110;18.900;2023-03-12T07:46:18;12.00;;;8.30;;
35757;SDS011;21879;50.110;18.900;2023-03-12T07:56:44;13.80;;;8.20;;
35757;SDS011;21879;50.110;18.900;2023-03-12T08:07:09;13.80;;;8.70;;
35757;SDS011;21879;50.110;18.900;2023-03-12T08:17:36;12.40;;;7.40;;
35757;SDS011;21879;50.110;18.900;2023-03-12T08:28:03;11.90;;;7.40;;
35757;SDS011;21879;50.110;18.900;2023-03-12T08:38:29;11.10;;;7.40;;
35757;SDS011;21879;50.110;18.900;2023-03-12T08:48:55;12.60;;;7.20;;
35757;SDS011;21879;50.110;18.900;2023-03-12T08:59:21;11.40;;;5.40;;
35757;SDS011;21879;50.110;18.900;2023-03-12T09:09:47;11.10;;;6.90;;
35757;SDS011;21879;50.110;18.900;2023-03-12T09:20:13;10.90;;;6.10;;
35757;SDS011;21879;50.110;18.900;2023-03-12T09:30:38;12.00;;;6.90;;
35757;SDS011;21879;50.110;18.900;2023-03-12T09:41:04;9.40;;;4.80;;
35757;SDS011;21879;50.110;18.900;2023-03-12T09:51:39;9.10;;;5.50;;
35757;SDS011;21879;50.110;18.900;2023-03-12T10:02:14;7.90;;;4.70;;
35757;SDS011;21879;50.110;18.900;2023-03-12T10:13:01;10.20;;;5.40;;
35757;SDS011;21879;50.110;18.900;2023-03-12T10:23:40;9.60;;;5.10;;
35757;SDS011;21879;50.110;18.900;2023-03-12T10:34:27;7.80;;;3.70;;
35757;SDS011;21879;50.110;18.900;2023-03-12T10:44:57;10.30;;;5.00;;
35757;SDS011;21879;50.110;18.900;2023-03-12T10:55:27;8.30;;;4.40;;
35757;SDS011;21879;50.110;18.900;2023-03-12T11:05:53;8.20;;;4.50;;
35757;SDS011;21879;50.110;18.900;2023-03-12T11:26:55;7.00;;;3.50;;
35757;SDS011;21879;50.110;18.900;2023-03-12T11:37:30;7.60;;;4.30;;
35757;SDS011;21879;50.110;18.900;2023-03-12T11:48:09;6.50;;;3.30;;
35757;SDS011;21879;50.110;18.900;2023-03-12T11:58:47;8.30;;;3.70;;
35757;SDS011;21879;50.110;18.900;2023-03-12T12:09:24;5.20;;;2.40;;
35757;SDS011;21879;50.110;18.900;2023-03-12T12:20:03;3.70;;;1.30;;
35757;SDS011;21879;50.110;18.900;2023-03-12T12:30:45;3.50;;;1.20;;
35757;SDS011;21879;50.110;18.900;2023-03-12T12:41:24;7.90;;;3.20;;
35757;SDS011;21879;50.110;18.900;2023-03-12T12:51:52;7.20;;;3.90;;
35757;SDS011;21879;50.110;18.900;2023-03-12T13:02:21;6.20;;;3.40;;
35757;SDS011;21879;50.110;18.900;2023-03-12T13:12:53;8.20;;;4.20;;
35757;SDS011;21879;50.110;18.900;2023-03-12T13:23:24;8.80;;;4.10;;
35757;SDS011;21879;50.110;18.900;2023-03-12T13:34:13;7.60;;;3.30;;
35757;SDS011;21879;50.110;18.900;2023-03-12T13:45:22;6.60;;;3.30;;
35757;SDS011;21879;50.110;18.900;2023-03-12T13:55:58;4.70;;;3.10;;
35757;SDS011;21879;50.110;18.900;2023-03-12T14:06:27;5.00;;;2.90;;
35757;SDS011;21879;50.110;18.900;2023-03-12T14:16:59;6.80;;;4.00;;
35757;SDS011;21879;50.110;18.900;2023-03-12T14:37:55;11.00;;;4.70;;
35757;SDS011;21879;50.110;18.900;2023-03-12T14:48:28;5.30;;;3.00;;
35757;SDS011;21879;50.110;18.900;2023-03-12T14:58:55;4.90;;;3.10;;
35757;SDS011;21879;50.110;18.900;2023-03-12T15:09:24;8.90;;;3.90;;
35757;SDS011;21879;50.110;18.900;2023-03-12T15:19:51;5.70;;;2.70;;
35757;SDS011;21879;50.110;18.900;2023-03-12T15:30:22;5.30;;;3.30;;
35757;SDS011;21879;50.110;18.900;2023-03-12T15:40:50;6.20;;;3.40;;
35757;SDS011;21879;50.110;18.900;2023-03-12T15:51:28;7.00;;;4.20;;
35757;SDS011;21879;50.110;18.900;2023-03-12T16:01:56;5.70;;;4.30;;
35757;SDS011;21879;50.110;18.900;2023-03-12T16:12:21;7.50;;;4.20;;
35757;SDS011;21879;50.110;18.900;2023-03-12T16:22:47;11.60;;;5.20;;
35757;SDS011;21879;50.110;18.900;2023-03-12T16:33:14;11.10;;;5.50;;
35757;SDS011;21879;50.110;18.900;2023-03-12T16:43:41;14.70;;;6.70;;
35757;SDS011;21879;50.110;18.900;2023-03-12T16:54:08;8.90;;;3.60;;
35757;SDS011;21879;50.110;18.900;2023-03-12T17:04:34;7.40;;;3.40;;
35757;SDS011;21879;50.110;18.900;2023-03-12T17:15:00;8.70;;;4.10;;
35757;SDS011;21879;50.110;18.900;2023-03-12T17:25:29;8.10;;;4.30;;
35757;SDS011;21879;50.110;18.900;2023-03-12T17:35:57;14.50;;;7.20;;
35757;SDS011;21879;50.110;18.900;2023-03-12T17:46:24;9.30;;;6.60;;
35757;SDS011;21879;50.110;18.900;2023-03-12T17:56:50;7.50;;;4.60;;
35757;SDS011;21879;50.110;18.900;2023-03-12T18:07:17;5.70;;;3.40;;
35757;SDS011;21879;50.110;18.900;2023-03-12T18:17:43;6.80;;;3.20;;
35757;SDS011;21879;50.110;18.900;2023-03-12T18:28:11;6.20;;;3.90;;
35757;SDS011;21879;50.110;18.900;2023-03-12T18:38:38;14.00;;;7.90;;
35757;SDS011;21879;50.110;18.900;2023-03-12T18:49:04;15.30;;;8.70;;
35757;SDS011;21879;50.110;18.900;2023-03-12T18:59:31;16.20;;;8.60;;
35757;SDS011;21879;50.110;18.900;2023-03-12T19:09:57;20.90;;;9.50;;
35757;SDS011;21879;50.110;18.900;2023-03-12T19:20:23;19.10;;;10.80;;
35757;SDS011;21879;50.110;18.900;2023-03-12T19:30:49;14.60;;;6.70;;
35757;SDS011;21879;50.110;18.900;2023-03-12T19:41:20;13.50;;;7.70;;
35757;SDS011;21879;50.110;18.900;2023-03-12T19:51:46;13.00;;;8.50;;
35757;SDS011;21879;50.110;18.900;2023-03-12T20:02:12;13.80;;;7.50;;
35757;SDS011;21879;50.110;18.900;2023-03-12T20:12:38;12.00;;;7.20;;
35757;SDS011;21879;50.110;18.900;2023-03-12T20:23:04;23.20;;;10.90;;
35757;SDS011;21879;50.110;18.900;2023-03-12T20:33:31;29.00;;;14.70;;
35757;SDS011;21879;50.110;18.900;2023-03-12T20:43:57;15.10;;;8.30;;
35757;SDS011;21879;50.110;18.900;2023-03-12T20:54:24;12.20;;;6.40;;
35757;SDS011;21879;50.110;18.900;2023-03-12T21:04:50;13.30;;;6.90;;
35757;SDS011;21879;50.110;18.900;2023-03-12T21:15:16;14.20;;;5.50;;
35757;SDS011;21879;50.110;18.900;2023-03-12T21:25:42;12.30;;;5.90;;
35757;SDS011;21879;50.110;18.900;2023-03-12T21:36:09;9.00;;;4.70;;
35757;SDS011;21879;50.110;18.900;2023-03-12T21:46:36;12.00;;;6.00;;
35757;SDS011;21879;50.110;18.900;2023-03-12T21:57:02;9.00;;;5.30;;
35757;SDS011;21879;50.110;18.900;2023-03-12T22:07:29;15.90;;;6.60;;
35757;SDS011;21879;50.110;18.900;2023-03-12T22:17:54;11.90;;;6.20;;
35757;SDS011;21879;50.110;18.900;2023-03-12T22:28:20;12.50;;;5.00;;
35757;SDS011;21879;50.110;18.900;2023-03-12T22:38:47;6.00;;;2.80;;
35757;SDS011;21879;50.110;18.900;2023-03-12T22:49:14;5.90;;;2.50;;
35757;SDS011;21879;50.110;18.900;2023-03-12T22:59:40;5.30;;;3.30;;
35757;SDS011;21879;50.110;18.900;2023-03-12T23:10:06;6.10;;;3.50;;
35757;SDS011;21879;50.110;18.900;2023-03-12T23:20:33;4.70;;;2.70;;
35757;SDS011;21879;50.110;18.900;2023-03-12T23:31:00;5.80;;;2.90;;
35757;SDS011;21879;50.110;18.900;2023-03-12T23:41:27;10.60;;;4.70;;
35757;SDS011;21879;50.110;18.900;2023-03-12T23:51:53;9.40;;;4.10;;
